Faulkner, MD

1:28 AM EDT on July 25, 2016 (GMT -0400)
Bridgeleigh Farms | | Change Station
Active Advisory: Heat Advisory

Elev 135 ft 38.46 °N, 76.91 °W | Updated 2 seconds ago

Scattered Clouds
Scattered Clouds
79.3 °F
Feels Like 81 °F
N
0.0
Wind Variable Wind from SE
Gusts 0.0 mph

Today
High -- | Low -- °F
--% Chance of Precip.
Yesterday
High -- | Low -- °F
Precip. -- in
Pressure 29.97 in
Visibility 10.0 miles
Clouds Few 6000 ft
Scattered Clouds 12000 ft
Heat Index 81 °F
Dew Point 64 °F
Humidity 60%
Rainfall 0.00 in
Snow Depth Not available.
6:04 AM 8:23 PM
Waning Gibbous, 69% visible
METAR KNYG 250456Z AUTO 30004KT 10SM FEW060 SCT120 28/24 A2996 RMK AO2 SLP147 T02780239 403440256
Pressure 29.97 in
Visibility 10.0 miles
Clouds Few 6000 ft
Scattered Clouds 12000 ft
Heat Index 81 °F
Dew Point 64 °F
Humidity 60%
Rainfall 0.00 in
Snow Depth Not available.
6:04 AM 8:23 PM
Waning Gibbous, 69% visible
METAR KNYG 250456Z AUTO 30004KT 10SM FEW060 SCT120 28/24 A2996 RMK AO2 SLP147 T02780239 403440256

10-Day Weather Forecast

Almanac

Astronomy

Jul. 25, 2016 Rise Set
Actual Time
Civil Twilight
Nautical Twilight
Astronomical Twilight
Moon
Length of Visible Light
Length of Day
Tomorrow will be .
, % of the Moon is Illuminated

Today's Extremes

State Highs State Lows

Community

WunderPhotos

Upload Photos

1,927,273 photos uploaded!

WunderBlog® & News

Nearby

Air Quality

  Air Quality AQ Index Pollutant
Not available.

Snow Depth

Station Depth Elevation

Earthquake Activity

City Distance Mag. Time & Date
Minimum magnitude displayed is 2.5.

Coastal Water Temperatures

Place Temperature

Stations

Nearby Weather Stations

Station Location Temp. Windchill Dew Point Humidity Wind Precip. Elev Updated Type
                   

Watches & Warnings

Heat Advisory
Issued: 7:25 PM EDT Jul. 24, 2016 – National Weather Service

... Heat advisory remains in effect from noon to 8 PM EDT Monday...

* heat index values... up to 109 due to temperatures in the mid
90s to around 100... and dewpoints in the lower 70s.

* Impacts... risk of heat-related illness for those without air-
conditioning or those outdoors for an extended period.

Precautionary/preparedness actions...

A heat advisory means that a period of high temperatures is
expected. The combination of high temperatures and high humidity
will create a situation in which heat illnesses are possible.

Take extra precautions if you work or spend time outside. When
possible... reschedule strenuous activities to early morning or
evening. Know the signs and symptoms of heat exhaustion and heat
stroke. Wear light weight and loose fitting clothing when
possible and drink plenty of water.

To reduce risk during outdoor work... the occupational safety and
health administration recommends scheduling frequent rest breaks
in shaded or air conditioned environments. Anyone overcome by
heat should be moved to a cool and shaded location. Heat stroke
is an emergency - call 911.